createdAt,value
2022-12-09T00:00:39.605Z,7.24
2022-12-09T00:03:27.351Z,7.16
2022-12-09T00:06:02.271Z,7.14
2022-12-09T00:08:36.216Z,7.19
2022-12-09T00:11:09.636Z,7.20
2022-12-09T00:13:45.849Z,7.20
2022-12-09T00:16:18.395Z,7.22
2022-12-09T00:19:03.166Z,7.16
2022-12-09T00:21:35.523Z,7.24
2022-12-09T00:24:07.639Z,7.23
2022-12-09T00:26:43.450Z,7.22
2022-12-09T00:29:33.768Z,7.21
2022-12-09T00:32:13.999Z,7.20
2022-12-09T00:34:47.567Z,7.14
2022-12-09T00:37:28.200Z,7.04
2022-12-09T00:40:07.064Z,7.15
2022-12-09T00:42:45.232Z,7.13
2022-12-09T00:45:17.541Z,7.07
2022-12-09T00:47:57.021Z,7.11
2022-12-09T00:50:31.027Z,7.12
2022-12-09T00:53:14.589Z,7.15
2022-12-09T00:55:47.350Z,7.20
2022-12-09T00:58:22.188Z,7.20
2022-12-09T01:03:52.236Z,7.11
2022-12-09T01:06:37.840Z,7.02
2022-12-09T01:09:14.868Z,6.97
2022-12-09T01:11:57.822Z,6.89
2022-12-09T01:14:33.546Z,6.86
2022-12-09T01:17:08.720Z,6.80
2022-12-09T01:19:50.272Z,6.70
2022-12-09T01:22:59.457Z,6.61
2022-12-09T01:25:29.836Z,6.47
2022-12-09T01:28:59.447Z,6.39
2022-12-09T01:31:33.552Z,6.31
2022-12-09T01:34:09.553Z,6.26
2022-12-09T01:37:39.694Z,6.23
2022-12-09T01:45:38.152Z,5.97
2022-12-09T01:48:55.767Z,5.95
2022-12-09T01:54:59.205Z,5.92
2022-12-09T01:57:45.070Z,5.98
2022-12-09T02:00:23.525Z,6.00
2022-12-09T02:02:59.948Z,6.00
2022-12-09T02:11:12.606Z,5.93
2022-12-09T02:14:07.661Z,5.91
2022-12-09T02:17:04.140Z,5.83
2022-12-09T02:19:53.099Z,5.85
2022-12-09T02:22:30.419Z,5.84
2022-12-09T02:25:23.136Z,5.86
2022-12-09T02:28:25.382Z,5.86
2022-12-09T02:34:59.063Z,5.79
2022-12-09T02:38:13.276Z,5.76
2022-12-09T02:40:47.689Z,5.76
2022-12-09T02:43:48.044Z,5.78
2022-12-09T02:46:47.343Z,5.77
2022-12-09T02:49:39.522Z,5.78
2022-12-09T02:52:45.773Z,5.75
2022-12-09T02:55:32.959Z,5.72
2022-12-09T02:58:09.346Z,5.68
2022-12-09T03:04:37.756Z,5.54
2022-12-09T03:07:19.342Z,5.53
2022-12-09T03:09:53.528Z,5.49
2022-12-09T03:12:29.900Z,5.47
2022-12-09T03:15:28.199Z,5.44
2022-12-09T03:17:59.841Z,5.24
2022-12-09T03:20:56.285Z,5.34
2022-12-09T03:23:44.476Z,5.26
2022-12-09T03:26:17.318Z,5.22
2022-12-09T03:29:25.548Z,5.16
2022-12-09T03:32:24.857Z,5.11
2022-12-09T03:34:58.660Z,5.16
2022-12-09T03:37:35.078Z,5.17
2022-12-09T03:40:15.640Z,5.20
2022-12-09T03:42:49.240Z,5.15
2022-12-09T03:45:19.638Z,5.17
2022-12-09T03:47:57.959Z,5.16
2022-12-09T03:50:32.208Z,5.09
2022-12-09T03:53:07.564Z,5.06
2022-12-09T03:55:41.256Z,5.03
2022-12-09T03:58:20.620Z,5.04
2022-12-09T04:01:09.141Z,5.02
2022-12-09T04:03:41.759Z,4.94
2022-12-09T04:06:20.932Z,5.00
2022-12-09T04:09:08.339Z,4.96
2022-12-09T04:11:39.827Z,4.92
2022-12-09T04:14:15.770Z,4.86
2022-12-09T04:16:53.156Z,4.87
2022-12-09T04:19:24.460Z,4.86
2022-12-09T04:22:10.582Z,4.84
2022-12-09T04:24:39.949Z,4.79
2022-12-09T04:27:15.372Z,4.78
2022-12-09T04:29:52.611Z,4.78
2022-12-09T04:32:28.881Z,4.73
2022-12-09T04:35:05.527Z,4.66
2022-12-09T04:37:39.045Z,4.55
2022-12-09T04:40:19.746Z,4.51
2022-12-09T04:42:54.916Z,4.33
2022-12-09T04:45:25.102Z,4.45
2022-12-09T04:47:58.170Z,4.48
2022-12-09T04:50:30.353Z,4.45
2022-12-09T04:53:03.184Z,4.47
2022-12-09T04:55:55.170Z,4.36
2022-12-09T04:58:34.914Z,4.45
2022-12-09T05:01:11.415Z,4.47
2022-12-09T05:03:46.369Z,4.48
2022-12-09T05:06:51.980Z,4.46
2022-12-09T05:09:28.036Z,4.40
2022-12-09T05:12:03.529Z,4.40
2022-12-09T05:14:35.801Z,4.36
2022-12-09T05:17:28.269Z,4.31
2022-12-09T05:20:04.115Z,4.30
2022-12-09T05:22:47.897Z,4.24
2022-12-09T05:25:17.529Z,4.16
2022-12-09T05:27:55.131Z,4.24
2022-12-09T05:30:24.553Z,4.21
2022-12-09T05:32:59.996Z,4.27
2022-12-09T05:35:45.033Z,4.22
2022-12-09T05:38:22.488Z,4.20
2022-12-09T05:41:02.167Z,4.12
2022-12-09T05:43:34.589Z,4.14
2022-12-09T05:46:05.593Z,4.11
2022-12-09T05:48:36.394Z,4.06
2022-12-09T05:51:14.794Z,4.12
2022-12-09T05:53:59.059Z,4.11
2022-12-09T05:56:37.063Z,4.06
2022-12-09T05:59:08.240Z,4.04
2022-12-09T06:01:37.582Z,4.00
2022-12-09T06:04:15.466Z,3.93
2022-12-09T06:06:54.722Z,3.97
2022-12-09T06:09:27.811Z,4.01
2022-12-09T06:12:00.341Z,4.02
2022-12-09T06:14:34.852Z,4.03
2022-12-09T06:17:07.531Z,3.78
2022-12-09T06:19:39.141Z,3.97
2022-12-09T06:22:08.414Z,3.89
2022-12-09T06:24:39.386Z,3.98
2022-12-09T06:27:15.772Z,3.94
2022-12-09T06:29:46.758Z,3.97
2022-12-09T06:32:18.049Z,3.94
2022-12-09T06:34:49.344Z,3.92
2022-12-09T06:37:20.126Z,3.92
2022-12-09T06:39:50.898Z,3.90
2022-12-09T06:42:24.287Z,3.87
2022-12-09T06:44:53.480Z,3.85
2022-12-09T06:47:25.671Z,3.83
2022-12-09T06:50:07.319Z,3.81
2022-12-09T06:52:50.797Z,3.75
2022-12-09T07:01:35.835Z,3.72
2022-12-09T07:04:05.777Z,3.73
2022-12-09T07:06:38.390Z,3.72
2022-12-09T07:09:11.491Z,3.72
2022-12-09T07:11:48.280Z,3.68
2022-12-09T07:14:19.250Z,3.63
2022-12-09T07:17:00.248Z,3.58
2022-12-09T07:19:38.671Z,3.56
2022-12-09T07:22:07.506Z,3.50
2022-12-09T07:24:43.929Z,3.52
2022-12-09T07:27:26.247Z,3.50
2022-12-09T07:29:56.037Z,3.50
2022-12-09T07:32:35.486Z,3.55
2022-12-09T07:35:08.264Z,3.54
2022-12-09T07:37:42.575Z,3.56
2022-12-09T07:40:20.398Z,3.54
2022-12-09T07:42:59.069Z,3.44
2022-12-09T07:45:31.484Z,3.41
2022-12-09T07:48:01.524Z,3.36
2022-12-09T07:50:50.923Z,3.38
2022-12-09T07:53:21.068Z,3.43
2022-12-09T07:55:51.733Z,3.43
2022-12-09T07:58:24.677Z,3.42
2022-12-09T08:00:59.108Z,3.28
2022-12-09T08:03:31.206Z,3.41
2022-12-09T08:06:01.666Z,3.45
2022-12-09T08:08:34.836Z,3.43
2022-12-09T08:11:21.480Z,3.45
2022-12-09T08:13:55.785Z,3.39
2022-12-09T08:16:26.597Z,3.31
2022-12-09T08:19:01.796Z,3.37
2022-12-09T08:21:36.160Z,3.36
2022-12-09T08:24:11.807Z,3.35
2022-12-09T08:26:48.184Z,3.35
2022-12-09T08:29:50.847Z,3.33
2022-12-09T08:32:21.050Z,3.42
2022-12-09T08:34:58.201Z,3.43
2022-12-09T08:37:30.465Z,3.49
2022-12-09T08:40:14.506Z,3.51
2022-12-09T08:42:51.976Z,3.56
2022-12-09T08:45:33.880Z,3.59
2022-12-09T08:48:19.834Z,3.60
2022-12-09T08:50:56.160Z,3.59
2022-12-09T08:53:28.993Z,3.65
2022-12-09T08:56:10.306Z,3.69
2022-12-09T08:58:41.167Z,3.75
2022-12-09T09:01:17.232Z,3.81
2022-12-09T09:03:58.495Z,3.87
2022-12-09T09:06:29.200Z,3.91
2022-12-09T09:09:02.015Z,3.92
2022-12-09T09:11:34.303Z,4.04
2022-12-09T09:14:11.605Z,4.05
2022-12-09T09:16:46.466Z,4.16
2022-12-09T09:19:17.573Z,4.21
2022-12-09T09:22:04.350Z,4.26
2022-12-09T09:24:37.776Z,4.25
2022-12-09T09:27:12.842Z,4.30
2022-12-09T09:29:44.558Z,4.26
2022-12-09T09:32:25.871Z,4.31
2022-12-09T09:35:01.371Z,4.32
2022-12-09T09:37:38.978Z,4.33
2022-12-09T09:40:14.979Z,4.37
2022-12-09T09:42:50.492Z,4.33
2022-12-09T09:45:30.109Z,4.38
2022-12-09T09:48:04.799Z,4.41
2022-12-09T09:50:47.893Z,4.45
2022-12-09T09:53:28.850Z,4.51
2022-12-09T09:56:19.172Z,4.56
2022-12-09T09:59:03.692Z,4.62
2022-12-09T10:02:15.100Z,4.60
2022-12-09T10:04:59.354Z,4.80
2022-12-09T10:07:52.605Z,4.86
2022-12-09T10:14:34.320Z,4.74
2022-12-09T10:17:35.028Z,5.10
2022-12-09T10:27:16.096Z,5.20
2022-12-09T10:30:12.798Z,5.24
2022-12-09T10:33:32.386Z,5.28
2022-12-09T10:36:43.311Z,5.36
2022-12-09T10:42:49.859Z,5.41
2022-12-09T10:48:56.011Z,5.55
2022-12-09T10:55:11.405Z,5.60
2022-12-09T10:58:02.135Z,5.78
2022-12-09T11:04:25.565Z,5.95
2022-12-09T11:07:34.043Z,6.17
2022-12-09T11:21:30.989Z,6.29
2022-12-09T11:35:02.236Z,6.59
2022-12-09T11:53:15.827Z,8.01
2022-12-09T11:59:09.291Z,8.38
2022-12-09T12:05:15.694Z,8.70
2022-12-09T12:08:31.469Z,8.89
2022-12-09T12:11:15.876Z,8.83
2022-12-09T12:17:24.614Z,8.69
2022-12-09T12:19:59.803Z,8.61
2022-12-09T12:22:38.034Z,8.57
2022-12-09T12:25:30.985Z,8.54
2022-12-09T12:28:27.278Z,8.28
2022-12-09T12:31:11.192Z,8.42
2022-12-09T12:34:23.692Z,8.42
2022-12-09T12:36:51.194Z,8.50
2022-12-09T12:40:05.608Z,8.62
2022-12-09T12:43:09.125Z,8.72
2022-12-09T12:46:07.936Z,8.80
2022-12-09T12:48:49.057Z,8.79
2022-12-09T12:51:27.408Z,8.78
2022-12-09T12:54:22.055Z,8.75
2022-12-09T12:57:11.478Z,8.76
2022-12-09T12:59:56.641Z,8.75
2022-12-09T13:02:41.034Z,8.79
2022-12-09T13:05:19.361Z,8.94
2022-12-09T13:07:59.831Z,9.24
2022-12-09T13:11:13.529Z,9.17
2022-12-09T13:13:48.034Z,9.02
2022-12-09T13:16:19.871Z,8.90
2022-12-09T13:18:50.897Z,8.87
2022-12-09T13:21:25.131Z,8.81
2022-12-09T13:24:22.708Z,9.00
2022-12-09T13:27:14.452Z,8.96
2022-12-09T13:29:58.167Z,9.26
2022-12-09T13:32:51.091Z,9.34
2022-12-09T13:35:22.724Z,9.29
2022-12-09T13:38:00.383Z,9.21
2022-12-09T13:40:42.207Z,9.09
2022-12-09T13:43:19.087Z,8.94
2022-12-09T13:45:58.050Z,8.87
2022-12-09T13:48:52.626Z,8.76
2022-12-09T13:51:25.039Z,8.71
2022-12-09T13:54:03.807Z,8.72
2022-12-09T13:56:35.253Z,8.71
2022-12-09T13:59:32.167Z,8.71
2022-12-09T14:02:06.379Z,8.73
2022-12-09T14:04:44.768Z,8.73
2022-12-09T14:07:35.315Z,8.69
2022-12-09T14:10:08.907Z,8.65
2022-12-09T14:13:35.526Z,8.67
2022-12-09T14:16:53.085Z,8.64
2022-12-09T14:20:01.484Z,8.68
2022-12-09T14:23:10.072Z,8.64
2022-12-09T14:29:33.917Z,8.53
2022-12-09T14:35:14.297Z,8.58
2022-12-09T14:38:01.582Z,8.52
2022-12-09T14:41:12.921Z,8.52
2022-12-09T14:47:02.337Z,8.36
2022-12-09T14:49:57.494Z,8.52
2022-12-09T14:52:51.944Z,8.51
2022-12-09T14:55:47.942Z,8.51
2022-12-09T14:58:30.161Z,8.49
2022-12-09T15:01:31.929Z,8.49
2022-12-09T15:07:09.351Z,8.47
2022-12-09T15:13:35.793Z,8.47
2022-12-09T15:16:30.683Z,8.39
2022-12-09T15:19:08.783Z,8.45
2022-12-09T15:21:50.881Z,8.40
2022-12-09T15:59:55.506Z,7.68
2022-12-09T16:02:42.670Z,7.56
2022-12-09T16:05:29.898Z,7.33
2022-12-09T16:08:23.846Z,7.30
2022-12-09T16:14:42.880Z,7.06
2022-12-09T16:17:25.284Z,6.99
2022-12-09T16:19:57.380Z,6.94
2022-12-09T16:22:35.882Z,6.79
2022-12-09T16:25:16.153Z,6.73
2022-12-09T16:27:59.153Z,6.78
2022-12-09T16:31:14.188Z,6.73
2022-12-09T16:34:12.372Z,6.55
2022-12-09T16:40:00.899Z,6.47
2022-12-09T16:42:47.802Z,6.41
2022-12-09T16:45:26.762Z,6.37
2022-12-09T16:47:59.046Z,6.28
2022-12-09T16:50:32.686Z,6.26
2022-12-09T16:53:01.380Z,6.21
2022-12-09T16:55:36.833Z,6.15
2022-12-09T16:58:06.073Z,6.07
2022-12-09T17:00:38.225Z,6.04
2022-12-09T17:03:23.417Z,6.00
2022-12-09T17:05:54.628Z,5.92
2022-12-09T17:08:37.382Z,5.85
2022-12-09T17:11:07.594Z,5.59
2022-12-09T17:13:37.018Z,5.72
2022-12-09T17:16:10.979Z,5.80
2022-12-09T17:18:58.729Z,5.73
2022-12-09T17:21:45.969Z,5.70
2022-12-09T17:24:23.258Z,5.71
2022-12-09T17:27:06.310Z,5.65
2022-12-09T17:29:55.812Z,5.63
2022-12-09T17:33:09.361Z,5.61
2022-12-09T17:35:57.944Z,5.58
2022-12-09T17:42:02.777Z,5.51
2022-12-09T17:44:47.913Z,5.51
2022-12-09T17:47:24.315Z,5.49
2022-12-09T17:50:28.798Z,5.46
2022-12-09T17:59:17.918Z,5.32
2022-12-09T18:04:47.432Z,5.29
2022-12-09T18:07:23.914Z,5.26
2022-12-09T18:13:40.242Z,5.11
2022-12-09T18:23:02.712Z,5.21
2022-12-09T18:29:34.187Z,5.16
2022-12-09T18:32:15.212Z,5.08
2022-12-09T18:34:52.912Z,5.03
2022-12-09T18:37:32.805Z,4.97
2022-12-09T18:40:23.192Z,4.93
2022-12-09T18:46:05.099Z,4.90
2022-12-09T18:48:54.654Z,4.91
2022-12-09T18:51:41.492Z,4.89
2022-12-09T18:54:19.328Z,4.87
2022-12-09T18:57:29.010Z,4.83
2022-12-09T19:00:45.061Z,4.78
2022-12-09T19:03:17.991Z,4.74
2022-12-09T19:09:07.327Z,4.69
2022-12-09T19:14:34.641Z,4.64
2022-12-09T19:17:22.664Z,4.60
2022-12-09T19:20:11.319Z,4.64
2022-12-09T19:22:49.995Z,4.64
2022-12-09T19:25:28.580Z,4.62
2022-12-09T19:28:28.479Z,4.62
2022-12-09T19:31:10.551Z,4.44
2022-12-09T19:36:45.097Z,4.57
2022-12-09T19:39:54.177Z,4.52
2022-12-09T19:45:48.351Z,4.55
2022-12-09T19:48:25.596Z,4.51
2022-12-09T19:51:22.392Z,4.49
2022-12-09T19:54:11.751Z,4.47
2022-12-09T19:56:58.340Z,4.45
2022-12-09T20:02:38.070Z,4.33
2022-12-09T20:05:30.883Z,4.36
2022-12-09T20:08:21.527Z,4.34
2022-12-09T20:10:55.777Z,4.32
2022-12-09T20:14:02.590Z,4.29
2022-12-09T20:19:45.315Z,4.27
2022-12-09T20:25:43.248Z,4.28
2022-12-09T20:29:22.699Z,4.01
2022-12-09T20:32:09.031Z,4.27
2022-12-09T20:38:58.315Z,4.24
2022-12-09T20:45:22.648Z,4.14
2022-12-09T21:11:49.047Z,3.98
2022-12-09T21:26:48.400Z,3.91
2022-12-09T21:40:55.105Z,3.93
2022-12-09T21:47:10.561Z,3.99
2022-12-09T21:50:08.587Z,3.98
2022-12-09T21:56:26.257Z,3.99
2022-12-09T21:59:22.213Z,4.01
2022-12-09T22:02:22.491Z,4.08
2022-12-09T22:14:47.057Z,4.25
2022-12-09T22:17:41.087Z,4.30
2022-12-09T22:21:07.764Z,4.24
2022-12-09T22:27:39.677Z,4.37
2022-12-09T22:41:33.904Z,4.38
2022-12-09T22:44:48.574Z,4.35
2022-12-09T22:47:19.738Z,4.38
2022-12-09T22:50:20.613Z,4.40
2022-12-09T22:57:25.889Z,4.24
2022-12-09T23:00:07.188Z,4.46
2022-12-09T23:02:44.758Z,4.55
2022-12-09T23:11:43.496Z,4.69
2022-12-09T23:15:00.211Z,4.64
2022-12-09T23:20:51.767Z,4.62
2022-12-09T23:27:11.705Z,4.75
2022-12-09T23:30:29.084Z,4.78
2022-12-09T23:33:02.526Z,4.57
2022-12-09T23:36:02.599Z,4.68
2022-12-09T23:38:35.905Z,4.68
2022-12-09T23:41:08.330Z,4.65
2022-12-09T23:44:05.483Z,4.62
2022-12-09T23:46:50.005Z,4.49
2022-12-09T23:49:52.917Z,4.41
2022-12-09T23:52:39.603Z,4.37
2022-12-09T23:55:21.087Z,4.32
2022-12-09T23:57:56.126Z,4.13
